Kimball Township, Michigan
Current Conditions -  °F | °C
As of 11:57 AM on Saturday 22 Nov 2014 (Local Time) from KPHN Reporting Station
Haze Haze  
Wind Chill: 29°   Ceiling: 800
Heat Index: 36°   Visibility: 4mi
Dew Point: 34°   Wind: 9mph
Humidity: 93%   Direction: 210°SSW
Pressure: 30.01"   Gusts: NA
Location:  42.9481°N, 82.5626°W
Report Text: KPHN 221657Z AUTO 21008KT 4SM BR OVC008 02/01 A3001 RMK AO2
Loading
Personal Weather Stations






























Interactive Weather Map New forecast layout! Learn more

10-Day Weather Forecast

Advertisements
Track Severe Weather on mobile